sensor_id;sensor_type;location;lat;lon;timestamp;pressure;altitude;pressure_sealevel;temperature;humidity
5877;BME280;2964;42.144;24.730;2023-01-30T00:01:03;142557.09;;;3.78;84.75
5877;BME280;2964;42.144;24.730;2023-01-30T00:03:30;142570.81;;;3.84;83.99
5877;BME280;2964;42.144;24.730;2023-01-30T00:05:58;142530.84;;;3.67;84.72
5877;BME280;2964;42.144;24.730;2023-01-30T00:08:25;142549.56;;;3.75;84.48
5877;BME280;2964;42.144;24.730;2023-01-30T00:10:51;142533.31;;;3.68;84.05
5877;BME280;2964;42.144;24.730;2023-01-30T00:13:18;142543.34;;;3.73;84.60
5877;BME280;2964;42.144;24.730;2023-01-30T00:15:46;142540.84;;;3.72;84.15
5877;BME280;2964;42.144;24.730;2023-01-30T00:18:13;142553.31;;;3.77;84.21
5877;BME280;2964;42.144;24.730;2023-01-30T00:20:40;142573.28;;;3.85;84.55
5877;BME280;2964;42.144;24.730;2023-01-30T00:23:06;142604.53;;;3.98;83.43
5877;BME280;2964;42.144;24.730;2023-01-30T00:25:33;142603.28;;;3.97;83.85
5877;BME280;2964;42.144;24.730;2023-01-30T00:28:00;142613.25;;;4.01;83.43
5877;BME280;2964;42.144;24.730;2023-01-30T00:30:27;142559.56;;;3.79;83.79
5877;BME280;2964;42.144;24.730;2023-01-30T00:32:56;142665.75;;;4.23;82.55
5877;BME280;2964;42.144;24.730;2023-01-30T00:35:23;142674.50;;;4.27;81.86
5877;BME280;2964;42.144;24.730;2023-01-30T00:37:54;142557.09;;;3.78;83.51
5877;BME280;2964;42.144;24.730;2023-01-30T00:40:21;142623.25;;;4.05;83.52
5877;BME280;2964;42.144;24.730;2023-01-30T00:42:47;142572.06;;;3.84;84.51
5877;BME280;2964;42.144;24.730;2023-01-30T00:45:32;142540.84;;;3.72;85.43
5877;BME280;2964;42.144;24.730;2023-01-30T00:48:17;142535.84;;;3.70;85.87
5877;BME280;2964;42.144;24.730;2023-01-30T00:50:44;142518.34;;;3.62;85.54
5877;BME280;2964;42.144;24.730;2023-01-30T00:53:12;142510.84;;;3.59;85.17
5877;BME280;2964;42.144;24.730;2023-01-30T00:55:40;142539.59;;;3.71;85.37
5877;BME280;2964;42.144;24.730;2023-01-30T00:58:08;142553.31;;;3.77;85.45
5877;BME280;2964;42.144;24.730;2023-01-30T01:00:35;142545.81;;;3.74;84.81
5877;BME280;2964;42.144;24.730;2023-01-30T01:03:02;142514.59;;;3.61;85.94
5877;BME280;2964;42.144;24.730;2023-01-30T01:05:30;142554.56;;;3.77;84.76
5877;BME280;2964;42.144;24.730;2023-01-30T01:07:57;142534.59;;;3.69;84.84
5877;BME280;2964;42.144;24.730;2023-01-30T01:10:24;142510.84;;;3.59;86.39
5877;BME280;2964;42.144;24.730;2023-01-30T01:12:51;142515.84;;;3.61;85.70
5877;BME280;2964;42.144;24.730;2023-01-30T01:15:18;142558.31;;;3.79;84.92
5877;BME280;2964;42.144;24.730;2023-01-30T01:17:45;142508.38;;;3.58;86.29
5877;BME280;2964;42.144;24.730;2023-01-30T01:20:12;142585.78;;;3.90;85.18
5877;BME280;2964;42.144;24.730;2023-01-30T01:22:40;142575.81;;;3.86;85.46
5877;BME280;2964;42.144;24.730;2023-01-30T01:25:07;142620.78;;;4.04;83.54
5877;BME280;2964;42.144;24.730;2023-01-30T01:27:35;142530.84;;;3.67;85.34
5877;BME280;2964;42.144;24.730;2023-01-30T01:30:01;142468.41;;;3.42;85.94
5877;BME280;2964;42.144;24.730;2023-01-30T01:32:28;142494.63;;;3.53;85.81
5877;BME280;2964;42.144;24.730;2023-01-30T01:34:55;142482.16;;;3.47;86.12
5877;BME280;2964;42.144;24.730;2023-01-30T01:37:21;142548.34;;;3.75;85.09
5877;BME280;2964;42.144;24.730;2023-01-30T01:39:49;142523.34;;;3.64;84.60
5877;BME280;2964;42.144;24.730;2023-01-30T01:42:35;142503.38;;;3.56;85.02
5877;BME280;2964;42.144;24.730;2023-01-30T01:45:13;142410.97;;;3.18;85.82
5877;BME280;2964;42.144;24.730;2023-01-30T01:47:45;142494.63;;;3.53;85.55
5877;BME280;2964;42.144;24.730;2023-01-30T01:50:18;142549.56;;;3.75;84.90
5877;BME280;2964;42.144;24.730;2023-01-30T01:52:48;142555.81;;;3.78;84.69
5877;BME280;2964;42.144;24.730;2023-01-30T01:55:20;142520.88;;;3.63;84.61
5877;BME280;2964;42.144;24.730;2023-01-30T01:57:50;142474.63;;;3.44;85.01
5877;BME280;2964;42.144;24.730;2023-01-30T02:00:20;142505.84;;;3.57;85.05
5877;BME280;2964;42.144;24.730;2023-01-30T02:02:51;142458.44;;;3.38;85.18
5877;BME280;2964;42.144;24.730;2023-01-30T02:05:20;142502.09;;;3.56;84.58
5877;BME280;2964;42.144;24.730;2023-01-30T02:07:51;142593.31;;;3.93;82.68
5877;BME280;2964;42.144;24.730;2023-01-30T02:10:22;142459.66;;;3.38;84.13
5877;BME280;2964;42.144;24.730;2023-01-30T02:12:51;142543.34;;;3.73;84.54
5877;BME280;2964;42.144;24.730;2023-01-30T02:15:18;142459.66;;;3.38;85.16
5877;BME280;2964;42.144;24.730;2023-01-30T02:17:45;142438.44;;;3.29;85.17
5877;BME280;2964;42.144;24.730;2023-01-30T02:20:20;142547.06;;;3.74;83.61
5877;BME280;2964;42.144;24.730;2023-01-30T02:23:16;142594.53;;;3.94;82.68
5877;BME280;2964;42.144;24.730;2023-01-30T02:29:14;142559.56;;;3.79;82.73
5877;BME280;2964;42.144;24.730;2023-01-30T02:31:49;142493.34;;;3.52;83.18
5877;BME280;2964;42.144;24.730;2023-01-30T02:34:36;142480.91;;;3.47;83.52
5877;BME280;2964;42.144;24.730;2023-01-30T02:37:16;142540.84;;;3.72;82.52
5877;BME280;2964;42.144;24.730;2023-01-30T02:39:57;142510.84;;;3.59;83.06
5877;BME280;2964;42.144;24.730;2023-01-30T02:42:32;142613.25;;;4.01;81.22
5877;BME280;2964;42.144;24.730;2023-01-30T02:45:05;142612.03;;;4.01;80.71
5877;BME280;2964;42.144;24.730;2023-01-30T02:47:37;142555.81;;;3.78;82.14
5877;BME280;2964;42.144;24.730;2023-01-30T02:50:10;142560.78;;;3.80;82.32
5877;BME280;2964;42.144;24.730;2023-01-30T02:52:38;142520.88;;;3.63;82.20
5877;BME280;2964;42.144;24.730;2023-01-30T02:55:13;142594.53;;;3.94;80.66
5877;BME280;2964;42.144;24.730;2023-01-30T02:57:43;142513.38;;;3.60;82.28
5877;BME280;2964;42.144;24.730;2023-01-30T03:00:10;142487.13;;;3.50;82.02
5877;BME280;2964;42.144;24.730;2023-01-30T03:02:52;142518.34;;;3.62;82.46
5877;BME280;2964;42.144;24.730;2023-01-30T03:05:43;142472.16;;;3.43;83.87
5877;BME280;2964;42.144;24.730;2023-01-30T03:08:21;142472.16;;;3.43;83.54
5877;BME280;2964;42.144;24.730;2023-01-30T03:10:55;142577.03;;;3.86;81.88
5877;BME280;2964;42.144;24.730;2023-01-30T03:13:30;142483.38;;;3.48;81.99
5877;BME280;2964;42.144;24.730;2023-01-30T03:16:02;142545.81;;;3.74;81.39
5877;BME280;2964;42.144;24.730;2023-01-30T03:18:31;142588.31;;;3.91;80.53
5877;BME280;2964;42.144;24.730;2023-01-30T03:21:03;142485.91;;;3.49;81.56
5877;BME280;2964;42.144;24.730;2023-01-30T03:23:30;142473.41;;;3.44;82.14
5877;BME280;2964;42.144;24.730;2023-01-30T03:26:09;142443.41;;;3.32;82.63
5877;BME280;2964;42.144;24.730;2023-01-30T03:28:41;142428.44;;;3.25;82.83
5877;BME280;2964;42.144;24.730;2023-01-30T03:31:09;142464.66;;;3.40;82.08
5877;BME280;2964;42.144;24.730;2023-01-30T03:33:40;142196.34;;;2.30;82.65
5877;BME280;2964;42.144;24.730;2023-01-30T03:36:09;142361.03;;;2.98;82.22
5877;BME280;2964;42.144;24.730;2023-01-30T03:38:37;142435.97;;;3.28;82.81
5877;BME280;2964;42.144;24.730;2023-01-30T03:41:04;142537.06;;;3.70;81.09
5877;BME280;2964;42.144;24.730;2023-01-30T03:43:31;142485.91;;;3.49;81.08
5877;BME280;2964;42.144;24.730;2023-01-30T03:45:57;142528.31;;;3.66;80.55
5877;BME280;2964;42.144;24.730;2023-01-30T03:48:24;142490.88;;;3.51;80.57
5877;BME280;2964;42.144;24.730;2023-01-30T03:50:52;142534.59;;;3.69;80.14
5877;BME280;2964;42.144;24.730;2023-01-30T03:53:19;142534.59;;;3.69;79.80
5877;BME280;2964;42.144;24.730;2023-01-30T03:55:45;142484.63;;;3.48;79.63
5877;BME280;2964;42.144;24.730;2023-01-30T03:58:12;142493.34;;;3.52;80.36
5877;BME280;2964;42.144;24.730;2023-01-30T04:00:39;142454.69;;;3.36;80.67
5877;BME280;2964;42.144;24.730;2023-01-30T04:03:05;142425.94;;;3.24;80.99
5877;BME280;2964;42.144;24.730;2023-01-30T04:05:32;142537.06;;;3.70;80.74
5877;BME280;2964;42.144;24.730;2023-01-30T04:08:00;142594.53;;;3.94;78.59
5877;BME280;2964;42.144;24.730;2023-01-30T04:10:27;142520.88;;;3.63;79.90
5877;BME280;2964;42.144;24.730;2023-01-30T04:13:02;142505.84;;;3.57;79.76
5877;BME280;2964;42.144;24.730;2023-01-30T04:15:29;142544.59;;;3.73;79.55
5877;BME280;2964;42.144;24.730;2023-01-30T04:17:55;142590.78;;;3.92;79.07
5877;BME280;2964;42.144;24.730;2023-01-30T04:20:22;142366.03;;;3.00;80.13
5877;BME280;2964;42.144;24.730;2023-01-30T04:22:49;142498.38;;;3.54;79.99
5877;BME280;2964;42.144;24.730;2023-01-30T04:25:17;142475.91;;;3.45;79.84
5877;BME280;2964;42.144;24.730;2023-01-30T04:27:44;142505.84;;;3.57;79.87
5877;BME280;2964;42.144;24.730;2023-01-30T04:30:10;142444.69;;;3.32;79.88
5877;BME280;2964;42.144;24.730;2023-01-30T04:32:37;142448.41;;;3.34;80.49
5877;BME280;2964;42.144;24.730;2023-01-30T04:35:04;142492.13;;;3.52;80.21
5877;BME280;2964;42.144;24.730;2023-01-30T04:37:31;142474.63;;;3.44;79.92
5877;BME280;2964;42.144;24.730;2023-01-30T04:40:05;142440.94;;;3.31;80.88
5877;BME280;2964;42.144;24.730;2023-01-30T04:42:33;142422.22;;;3.23;80.40
5877;BME280;2964;42.144;24.730;2023-01-30T04:45:00;142537.06;;;3.70;79.57
5877;BME280;2964;42.144;24.730;2023-01-30T04:47:27;142362.28;;;2.98;79.17
5877;BME280;2964;42.144;24.730;2023-01-30T04:49:53;142423.47;;;3.23;80.34
5877;BME280;2964;42.144;24.730;2023-01-30T04:52:20;142502.09;;;3.56;80.44
5877;BME280;2964;42.144;24.730;2023-01-30T04:54:47;142500.88;;;3.55;79.60
5877;BME280;2964;42.144;24.730;2023-01-30T04:57:13;142529.56;;;3.67;79.56
5877;BME280;2964;42.144;24.730;2023-01-30T04:59:41;142564.53;;;3.81;78.24
5877;BME280;2964;42.144;24.730;2023-01-30T05:02:08;142472.16;;;3.43;79.00
5877;BME280;2964;42.144;24.730;2023-01-30T05:04:36;142448.41;;;3.34;79.70
5877;BME280;2964;42.144;24.730;2023-01-30T05:07:03;142460.91;;;3.39;79.14
5877;BME280;2964;42.144;24.730;2023-01-30T05:09:30;142414.72;;;3.20;81.29
5877;BME280;2964;42.144;24.730;2023-01-30T05:11:56;142398.47;;;3.13;80.56
5877;BME280;2964;42.144;24.730;2023-01-30T05:14:23;142489.66;;;3.51;79.29
5877;BME280;2964;42.144;24.730;2023-01-30T05:16:51;142468.41;;;3.42;78.59
5877;BME280;2964;42.144;24.730;2023-01-30T05:19:18;142483.38;;;3.48;78.71
5877;BME280;2964;42.144;24.730;2023-01-30T05:21:45;142469.66;;;3.42;78.66
5877;BME280;2964;42.144;24.730;2023-01-30T05:24:11;142399.75;;;3.14;80.07
5877;BME280;2964;42.144;24.730;2023-01-30T05:26:38;142478.38;;;3.46;78.71
5877;BME280;2964;42.144;24.730;2023-01-30T05:29:04;142485.91;;;3.49;78.84
5877;BME280;2964;42.144;24.730;2023-01-30T05:31:31;142468.41;;;3.42;78.43
5877;BME280;2964;42.144;24.730;2023-01-30T05:34:00;142403.47;;;3.15;79.19
5877;BME280;2964;42.144;24.730;2023-01-30T05:36:27;142418.47;;;3.21;79.39
5877;BME280;2964;42.144;24.730;2023-01-30T05:38:54;142449.69;;;3.34;78.63
5877;BME280;2964;42.144;24.730;2023-01-30T05:41:20;142414.72;;;3.20;79.11
5877;BME280;2964;42.144;24.730;2023-01-30T05:43:48;142363.53;;;2.99;78.93
5877;BME280;2964;42.144;24.730;2023-01-30T05:46:15;142424.69;;;3.24;79.30
5877;BME280;2964;42.144;24.730;2023-01-30T05:48:42;142488.38;;;3.50;77.96
5877;BME280;2964;42.144;24.730;2023-01-30T05:51:17;142458.44;;;3.38;78.62
5877;BME280;2964;42.144;24.730;2023-01-30T05:53:44;142500.88;;;3.55;78.58
5877;BME280;2964;42.144;24.730;2023-01-30T05:56:11;142467.19;;;3.41;79.11
5877;BME280;2964;42.144;24.730;2023-01-30T05:58:37;142487.13;;;3.50;79.02
5877;BME280;2964;42.144;24.730;2023-01-30T06:01:05;142473.41;;;3.44;78.54
5877;BME280;2964;42.144;24.730;2023-01-30T06:03:32;142438.44;;;3.29;78.82
5877;BME280;2964;42.144;24.730;2023-01-30T06:06:00;142494.63;;;3.53;78.12
5877;BME280;2964;42.144;24.730;2023-01-30T06:08:29;142510.84;;;3.59;77.93
5877;BME280;2964;42.144;24.730;2023-01-30T06:10:58;142495.88;;;3.53;78.08
5877;BME280;2964;42.144;24.730;2023-01-30T06:13:25;142458.44;;;3.38;78.89
5877;BME280;2964;42.144;24.730;2023-01-30T06:15:52;142463.41;;;3.40;79.70
5877;BME280;2964;42.144;24.730;2023-01-30T06:18:19;142472.16;;;3.43;78.09
5877;BME280;2964;42.144;24.730;2023-01-30T06:20:46;142455.91;;;3.37;79.14
5877;BME280;2964;42.144;24.730;2023-01-30T06:23:13;142484.63;;;3.48;79.38
5877;BME280;2964;42.144;24.730;2023-01-30T06:25:43;142493.34;;;3.52;78.78
5877;BME280;2964;42.144;24.730;2023-01-30T06:28:10;142530.84;;;3.67;78.23
5877;BME280;2964;42.144;24.730;2023-01-30T06:30:37;142489.66;;;3.51;78.58
5877;BME280;2964;42.144;24.730;2023-01-30T06:33:04;142467.19;;;3.41;79.23
5877;BME280;2964;42.144;24.730;2023-01-30T06:35:31;142528.31;;;3.66;78.08
5877;BME280;2964;42.144;24.730;2023-01-30T06:37:57;142560.78;;;3.80;77.28
5877;BME280;2964;42.144;24.730;2023-01-30T06:40:24;142483.38;;;3.48;78.86
5877;BME280;2964;42.144;24.730;2023-01-30T06:42:52;142570.81;;;3.84;77.34
5877;BME280;2964;42.144;24.730;2023-01-30T06:45:19;142470.88;;;3.43;78.61
5877;BME280;2964;42.144;24.730;2023-01-30T06:47:46;142497.09;;;3.54;78.22
5877;BME280;2964;42.144;24.730;2023-01-30T06:50:14;142458.44;;;3.38;78.50
5877;BME280;2964;42.144;24.730;2023-01-30T06:52:43;142371.03;;;3.02;77.75
5877;BME280;2964;42.144;24.730;2023-01-30T06:55:11;142484.63;;;3.48;79.17
5877;BME280;2964;42.144;24.730;2023-01-30T06:57:39;142559.56;;;3.79;77.42
5877;BME280;2964;42.144;24.730;2023-01-30T07:00:09;142530.84;;;3.67;78.03
5877;BME280;2964;42.144;24.730;2023-01-30T07:02:37;142528.31;;;3.66;77.47
5877;BME280;2964;42.144;24.730;2023-01-30T07:05:05;142495.88;;;3.53;78.06
5877;BME280;2964;42.144;24.730;2023-01-30T07:07:33;142465.88;;;3.41;78.58
5877;BME280;2964;42.144;24.730;2023-01-30T07:10:02;142519.59;;;3.63;78.43
5877;BME280;2964;42.144;24.730;2023-01-30T07:12:29;142490.88;;;3.51;78.73
5877;BME280;2964;42.144;24.730;2023-01-30T07:14:55;142492.13;;;3.52;78.45
5877;BME280;2964;42.144;24.730;2023-01-30T07:17:24;142575.81;;;3.86;77.66
5877;BME280;2964;42.144;24.730;2023-01-30T07:19:51;142538.31;;;3.71;77.61
5877;BME280;2964;42.144;24.730;2023-01-30T07:22:18;142483.38;;;3.48;78.59
5877;BME280;2964;42.144;24.730;2023-01-30T07:24:44;142525.84;;;3.65;77.98
5877;BME280;2964;42.144;24.730;2023-01-30T07:27:12;142558.31;;;3.79;77.70
5877;BME280;2964;42.144;24.730;2023-01-30T07:29:39;142622.00;;;4.05;77.16
5877;BME280;2964;42.144;24.730;2023-01-30T07:32:06;142508.38;;;3.58;78.00
5877;BME280;2964;42.144;24.730;2023-01-30T07:34:36;142545.81;;;3.74;78.37
5877;BME280;2964;42.144;24.730;2023-01-30T07:37:04;142485.91;;;3.49;78.51
5877;BME280;2964;42.144;24.730;2023-01-30T07:39:30;142628.25;;;4.07;77.18
5877;BME280;2964;42.144;24.730;2023-01-30T07:41:59;142544.59;;;3.73;77.70
5877;BME280;2964;42.144;24.730;2023-01-30T07:44:25;142517.13;;;3.62;78.54
5877;BME280;2964;42.144;24.730;2023-01-30T07:46:52;142628.25;;;4.07;76.92
5877;BME280;2964;42.144;24.730;2023-01-30T07:49:19;142597.06;;;3.95;77.16
5877;BME280;2964;42.144;24.730;2023-01-30T07:51:47;142548.34;;;3.75;78.02
5877;BME280;2964;42.144;24.730;2023-01-30T07:54:13;142553.31;;;3.77;76.20
5877;BME280;2964;42.144;24.730;2023-01-30T07:56:40;142584.56;;;3.90;77.36
5877;BME280;2964;42.144;24.730;2023-01-30T07:59:07;142520.88;;;3.63;78.44
5877;BME280;2964;42.144;24.730;2023-01-30T08:01:35;142570.81;;;3.84;77.26
5877;BME280;2964;42.144;24.730;2023-01-30T08:04:02;142595.78;;;3.94;77.46
5877;BME280;2964;42.144;24.730;2023-01-30T08:06:28;142610.78;;;4.00;77.76
5877;BME280;2964;42.144;24.730;2023-01-30T08:08:57;142615.78;;;4.02;77.65
5877;BME280;2964;42.144;24.730;2023-01-30T08:11:23;142733.22;;;4.51;75.79
5877;BME280;2964;42.144;24.730;2023-01-30T08:13:50;142568.28;;;3.83;75.42
5877;BME280;2964;42.144;24.730;2023-01-30T08:16:16;142688.25;;;4.32;75.52
5877;BME280;2964;42.144;24.730;2023-01-30T08:18:43;142630.75;;;4.09;75.92
5877;BME280;2964;42.144;24.730;2023-01-30T08:21:10;142588.31;;;3.91;76.50
5877;BME280;2964;42.144;24.730;2023-01-30T08:23:37;142584.56;;;3.90;77.12
5877;BME280;2964;42.144;24.730;2023-01-30T08:26:05;142663.22;;;4.22;76.29
5877;BME280;2964;42.144;24.730;2023-01-30T08:28:32;142704.47;;;4.39;75.31
5877;BME280;2964;42.144;24.730;2023-01-30T08:30:59;142689.47;;;4.33;74.65
5877;BME280;2964;42.144;24.730;2023-01-30T08:33:25;142732.00;;;4.50;73.90
5877;BME280;2964;42.144;24.730;2023-01-30T08:35:54;142690.72;;;4.33;75.29
5877;BME280;2964;42.144;24.730;2023-01-30T08:38:21;142713.22;;;4.42;75.26
5877;BME280;2964;42.144;24.730;2023-01-30T08:40:47;142730.72;;;4.50;73.80
5877;BME280;2964;42.144;24.730;2023-01-30T08:43:16;142681.97;;;4.30;75.30
5877;BME280;2964;42.144;24.730;2023-01-30T08:45:43;142745.75;;;4.56;74.96
5877;BME280;2964;42.144;24.730;2023-01-30T08:48:09;142745.75;;;4.56;73.75
5877;BME280;2964;42.144;24.730;2023-01-30T08:50:36;142697.00;;;4.36;74.45
5877;BME280;2964;42.144;24.730;2023-01-30T08:53:04;142723.25;;;4.47;74.82
5877;BME280;2964;42.144;24.730;2023-01-30T08:55:31;142743.22;;;4.55;73.15
5877;BME280;2964;42.144;24.730;2023-01-30T08:57:58;142780.69;;;4.70;73.68
5877;BME280;2964;42.144;24.730;2023-01-30T09:00:26;142778.22;;;4.69;73.59
5877;BME280;2964;42.144;24.730;2023-01-30T09:02:54;142774.47;;;4.68;73.67
5877;BME280;2964;42.144;24.730;2023-01-30T09:05:24;142683.25;;;4.30;74.64
5877;BME280;2964;42.144;24.730;2023-01-30T09:07:50;142719.50;;;4.45;74.44
5877;BME280;2964;42.144;24.730;2023-01-30T09:10:17;142715.72;;;4.43;75.32
5877;BME280;2964;42.144;24.730;2023-01-30T09:12:44;142728.25;;;4.49;73.63
5877;BME280;2964;42.144;24.730;2023-01-30T09:15:11;142634.50;;;4.10;75.41
5877;BME280;2964;42.144;24.730;2023-01-30T09:17:39;142685.72;;;4.31;74.19
5877;BME280;2964;42.144;24.730;2023-01-30T09:20:06;142669.50;;;4.24;75.05
5877;BME280;2964;42.144;24.730;2023-01-30T09:22:33;142783.22;;;4.71;74.21
5877;BME280;2964;42.144;24.730;2023-01-30T09:25:00;142748.22;;;4.57;74.13
5877;BME280;2964;42.144;24.730;2023-01-30T09:27:27;142697.00;;;4.36;74.40
5877;BME280;2964;42.144;24.730;2023-01-30T09:29:53;142746.97;;;4.56;74.34
5877;BME280;2964;42.144;24.730;2023-01-30T09:32:20;142703.22;;;4.38;73.59
5877;BME280;2964;42.144;24.730;2023-01-30T09:34:48;142644.50;;;4.14;74.62
5877;BME280;2964;42.144;24.730;2023-01-30T09:37:15;142635.75;;;4.11;75.36
5877;BME280;2964;42.144;24.730;2023-01-30T09:39:42;142695.75;;;4.35;74.67
5877;BME280;2964;42.144;24.730;2023-01-30T09:42:33;142798.19;;;4.77;74.06
5877;BME280;2964;42.144;24.730;2023-01-30T09:45:36;142870.72;;;5.07;73.20
5877;BME280;2964;42.144;24.730;2023-01-30T09:48:20;142884.50;;;5.13;73.34
5877;BME280;2964;42.144;24.730;2023-01-30T09:51:10;142858.25;;;5.02;73.63
5877;BME280;2964;42.144;24.730;2023-01-30T09:53:51;142873.22;;;5.08;73.86
5877;BME280;2964;42.144;24.730;2023-01-30T09:56:19;142855.72;;;5.01;73.65
5877;BME280;2964;42.144;24.730;2023-01-30T09:58:49;142915.75;;;5.26;72.68
5877;BME280;2964;42.144;24.730;2023-01-30T10:01:21;142836.97;;;4.93;73.99
5877;BME280;2964;42.144;24.730;2023-01-30T10:04:01;142824.47;;;4.88;72.55
5877;BME280;2964;42.144;24.730;2023-01-30T10:06:35;142829.47;;;4.90;73.54
5877;BME280;2964;42.144;24.730;2023-01-30T10:09:10;142831.97;;;4.91;72.89
5877;BME280;2964;42.144;24.730;2023-01-30T10:11:49;142790.72;;;4.74;74.22
5877;BME280;2964;42.144;24.730;2023-01-30T10:14:41;142885.75;;;5.13;73.11
5877;BME280;2964;42.144;24.730;2023-01-30T10:17:30;143027.06;;;5.71;70.68
5877;BME280;2964;42.144;24.730;2023-01-30T10:23:01;142873.22;;;5.08;71.57
5877;BME280;2964;42.144;24.730;2023-01-30T10:25:36;142853.25;;;5.00;71.83
5877;BME280;2964;42.144;24.730;2023-01-30T10:28:15;142900.72;;;5.19;71.53
5877;BME280;2964;42.144;24.730;2023-01-30T10:30:45;143000.78;;;5.60;70.15
5877;BME280;2964;42.144;24.730;2023-01-30T10:33:19;142927.00;;;5.30;71.50
5877;BME280;2964;42.144;24.730;2023-01-30T10:35:57;142944.50;;;5.37;71.66
5877;BME280;2964;42.144;24.730;2023-01-30T10:38:33;142952.03;;;5.40;70.34
5877;BME280;2964;42.144;24.730;2023-01-30T10:41:06;142963.28;;;5.45;70.63
5877;BME280;2964;42.144;24.730;2023-01-30T10:43:40;142912.00;;;5.24;71.58
5877;BME280;2964;42.144;24.730;2023-01-30T10:46:21;142984.53;;;5.54;70.17
5877;BME280;2964;42.144;24.730;2023-01-30T10:48:54;143007.06;;;5.63;70.49
5877;BME280;2964;42.144;24.730;2023-01-30T10:51:32;142901.97;;;5.20;71.10
5877;BME280;2964;42.144;24.730;2023-01-30T10:54:09;142998.31;;;5.59;70.95
5877;BME280;2964;42.144;24.730;2023-01-30T10:56:42;142939.50;;;5.35;70.31
5877;BME280;2964;42.144;24.730;2023-01-30T10:59:20;142826.97;;;4.89;71.67
5877;BME280;2964;42.144;24.730;2023-01-30T11:01:54;142824.47;;;4.88;71.40
5877;BME280;2964;42.144;24.730;2023-01-30T11:04:28;143025.81;;;5.71;70.39
5877;BME280;2964;42.144;24.730;2023-01-30T11:06:56;143073.38;;;5.90;69.91
5877;BME280;2964;42.144;24.730;2023-01-30T11:09:36;143158.47;;;6.25;68.45
5877;BME280;2964;42.144;24.730;2023-01-30T11:12:03;143159.75;;;6.26;68.52
5877;BME280;2964;42.144;24.730;2023-01-30T11:14:48;143103.44;;;6.03;69.32
5877;BME280;2964;42.144;24.730;2023-01-30T11:17:16;143132.25;;;6.14;68.89
5877;BME280;2964;42.144;24.730;2023-01-30T11:19:44;143128.47;;;6.13;67.80
5877;BME280;2964;42.144;24.730;2023-01-30T11:22:13;143218.59;;;6.50;67.61
5877;BME280;2964;42.144;24.730;2023-01-30T11:24:43;143238.59;;;6.58;67.34
5877;BME280;2964;42.144;24.730;2023-01-30T11:27:15;143104.72;;;6.03;67.94
5877;BME280;2964;42.144;24.730;2023-01-30T11:29:43;143050.84;;;5.81;68.50
5877;BME280;2964;42.144;24.730;2023-01-30T11:32:11;143049.56;;;5.80;69.54
5877;BME280;2964;42.144;24.730;2023-01-30T11:34:42;143147.25;;;6.21;68.57
5877;BME280;2964;42.144;24.730;2023-01-30T11:37:14;143123.47;;;6.11;68.63
5877;BME280;2964;42.144;24.730;2023-01-30T11:39:51;143078.38;;;5.92;68.93
5877;BME280;2964;42.144;24.730;2023-01-30T11:42:19;143093.44;;;5.98;68.90
5877;BME280;2964;42.144;24.730;2023-01-30T11:44:54;143033.34;;;5.74;69.07
5877;BME280;2964;42.144;24.730;2023-01-30T11:47:23;142940.75;;;5.36;70.68
5877;BME280;2964;42.144;24.730;2023-01-30T11:49:53;143029.56;;;5.72;69.81
5877;BME280;2964;42.144;24.730;2023-01-30T11:52:24;143104.72;;;6.03;67.92
5877;BME280;2964;42.144;24.730;2023-01-30T11:54:57;143022.06;;;5.69;68.97
5877;BME280;2964;42.144;24.730;2023-01-30T11:57:27;143002.06;;;5.61;66.54
5877;BME280;2964;42.144;24.730;2023-01-30T11:59:55;142950.75;;;5.40;63.83
5877;BME280;2964;42.144;24.730;2023-01-30T12:02:25;142980.78;;;5.52;63.88
5877;BME280;2964;42.144;24.730;2023-01-30T12:04:56;142899.50;;;5.19;64.82
5877;BME280;2964;42.144;24.730;2023-01-30T12:07:26;142967.03;;;5.47;64.86
5877;BME280;2964;42.144;24.730;2023-01-30T12:09:55;143003.31;;;5.61;63.49
5877;BME280;2964;42.144;24.730;2023-01-30T12:12:28;142919.47;;;5.27;63.59
5877;BME280;2964;42.144;24.730;2023-01-30T12:15:04;143010.81;;;5.65;64.78
5877;BME280;2964;42.144;24.730;2023-01-30T12:17:41;142940.75;;;5.36;64.54
5877;BME280;2964;42.144;24.730;2023-01-30T12:20:16;142985.78;;;5.54;63.55
5877;BME280;2964;42.144;24.730;2023-01-30T12:22:50;142868.22;;;5.06;63.75
5877;BME280;2964;42.144;24.730;2023-01-30T12:25:24;142970.78;;;5.48;63.79
5877;BME280;2964;42.144;24.730;2023-01-30T12:27:56;142968.25;;;5.47;63.84
5877;BME280;2964;42.144;24.730;2023-01-30T12:30:32;142915.75;;;5.26;62.89
5877;BME280;2964;42.144;24.730;2023-01-30T12:33:04;142939.50;;;5.35;63.53
5877;BME280;2964;42.144;24.730;2023-01-30T12:35:43;142969.50;;;5.48;62.80
5877;BME280;2964;42.144;24.730;2023-01-30T12:38:24;142938.28;;;5.35;63.95
5877;BME280;2964;42.144;24.730;2023-01-30T12:41:04;142949.50;;;5.39;63.08
5877;BME280;2964;42.144;24.730;2023-01-30T12:43:45;142942.00;;;5.36;63.25
5877;BME280;2964;42.144;24.730;2023-01-30T12:46:28;142989.53;;;5.56;62.71
5877;BME280;2964;42.144;24.730;2023-01-30T12:49:33;142928.22;;;5.31;63.59
5877;BME280;2964;42.144;24.730;2023-01-30T12:52:15;142925.75;;;5.30;64.19
5877;BME280;2964;42.144;24.730;2023-01-30T12:54:52;142988.31;;;5.55;63.40
5877;BME280;2964;42.144;24.730;2023-01-30T12:57:28;142960.78;;;5.44;64.09
5877;BME280;2964;42.144;24.730;2023-01-30T13:00:10;142960.78;;;5.44;63.29
5877;BME280;2964;42.144;24.730;2023-01-30T13:02:52;142953.28;;;5.41;63.03
5877;BME280;2964;42.144;24.730;2023-01-30T13:05:33;142930.75;;;5.32;63.74
5877;BME280;2964;42.144;24.730;2023-01-30T13:08:14;142939.50;;;5.35;62.96
5877;BME280;2964;42.144;24.730;2023-01-30T13:10:50;142938.28;;;5.35;63.81
5877;BME280;2964;42.144;24.730;2023-01-30T13:13:24;142965.78;;;5.46;64.11
5877;BME280;2964;42.144;24.730;2023-01-30T13:16:00;143003.31;;;5.61;63.99
5877;BME280;2964;42.144;24.730;2023-01-30T13:18:34;142979.53;;;5.52;65.13
5877;BME280;2964;42.144;24.730;2023-01-30T13:21:08;142970.78;;;5.48;64.98
5877;BME280;2964;42.144;24.730;2023-01-30T13:23:46;142900.72;;;5.19;64.12
5877;BME280;2964;42.144;24.730;2023-01-30T13:26:17;142934.53;;;5.33;64.39
5877;BME280;2964;42.144;24.730;2023-01-30T13:28:48;142907.00;;;5.22;63.70
5877;BME280;2964;42.144;24.730;2023-01-30T13:31:17;142877.00;;;5.10;64.19
5877;BME280;2964;42.144;24.730;2023-01-30T13:33:47;142900.72;;;5.19;64.13